Yokosuka Fwf, Japan

7:04 AM JST on November 25, 2014 (GMT +0900)
Totsukaku-Kashiodai | Change Station
CLOSE
Current Station
Personal Weather Station
Location: 横浜市, 神奈川県
Elevation: 112 ft
Nearby Weather Stations

Elev 112 ft 35.42 °N, 139.56 °E | Updated 28 seconds ago

Light Rain
Light Rain
54.5 °F
Feels Like 54.5 °F
N
1.3
Wind Variable Wind from WSW
Gusts 2.5 mph

Today
High -- | Low -- °F
--% Chance of Precip.
Yesterday
High -- | Low -- °F
Precip. -- in
6:25 AM 4:30 PM
Waxing Crescent, 7% visible
Pressure 29.95 in
Visibility 6.2 miles
Clouds Few 1500 ft
Scattered Clouds 10000 ft
Mostly Cloudy 13000 ft
Dew Point 50 °F
Humidity 86%
Rainfall 0.00 in
Snow Depth Not available.
UV 0 out of 12
Pollen Not available.
Air Quality Not available.
Flu Activity Not available.
METAR RJTT 242130Z VRB01KT 9999 -RA FEW015 SCT100 BKN130 12/08 Q1014 NOSIG RMK 1CU015 3AC100 7AC130 A2997

More Conditions Fewer Conditions

Pressure 29.95 in
Visibility 6.2 miles
Clouds Few 1500 ft
Scattered Clouds 10000 ft
Mostly Cloudy 13000 ft
Dew Point 50 °F
Humidity 86%
Rainfall 0.00 in
Snow Depth Not available.
UV 0 out of 12
Pollen Not available.
Air Quality Not available.
Flu Activity Not available.
METAR RJTT 242130Z VRB01KT 9999 -RA FEW015 SCT100 BKN130 12/08 Q1014 NOSIG RMK 1CU015 3AC100 7AC130 A2997

More Conditions Fewer Conditions

10-Day Weather Forecast

Almanac

Astronomy

Nov. 25, 2014 Rise Set
Actual Time
Civil Twilight
Nautical Twilight
Astronomical Twilight
Moon
Length of Visible Light
Length of Day
Tomorrow will be .
, % of the Moon is Illuminated

Today's Extremes

Country Highs Country Lows

Community

WunderPhotos

Upload Photos

1,773,423 photos uploaded!

WunderBlogs® & News

Nearby

Air Quality

  Air Quality AQ Index Pollutant
Not available.

Snow Depth

Station Depth Elevation

Earthquake Activity

City Distance Mag. Time & Date
Minimum magnitude displayed is 2.5.

Coastal Water Temperatures

Place Temperature

Nearby Weather Stations